sensor_id;sensor_type;location;lat;lon;timestamp;temperature;humidity
27803;DHT22;15182;48.174;11.562;2024-03-22T00:02:25;14.20;94.50
27803;DHT22;15182;48.174;11.562;2024-03-22T00:04:52;14.30;94.50
27803;DHT22;15182;48.174;11.562;2024-03-22T00:07:20;14.30;94.50
27803;DHT22;15182;48.174;11.562;2024-03-22T00:09:48;14.30;94.50
27803;DHT22;15182;48.174;11.562;2024-03-22T00:12:16;14.30;94.50
27803;DHT22;15182;48.174;11.562;2024-03-22T00:14:43;14.20;94.40
27803;DHT22;15182;48.174;11.562;2024-03-22T00:17:11;14.20;94.40
27803;DHT22;15182;48.174;11.562;2024-03-22T00:19:38;14.20;94.40
27803;DHT22;15182;48.174;11.562;2024-03-22T00:22:05;14.20;94.40
27803;DHT22;15182;48.174;11.562;2024-03-22T00:24:32;14.20;94.40
27803;DHT22;15182;48.174;11.562;2024-03-22T00:27:02;14.20;94.40
27803;DHT22;15182;48.174;11.562;2024-03-22T00:29:29;14.10;94.40
27803;DHT22;15182;48.174;11.562;2024-03-22T00:31:56;14.10;94.40
27803;DHT22;15182;48.174;11.562;2024-03-22T00:34:23;14.10;94.40
27803;DHT22;15182;48.174;11.562;2024-03-22T00:36:51;14.10;94.80
27803;DHT22;15182;48.174;11.562;2024-03-22T00:39:19;14.10;94.40
27803;DHT22;15182;48.174;11.562;2024-03-22T00:41:46;14.10;94.40
27803;DHT22;15182;48.174;11.562;2024-03-22T00:44:15;14.10;94.40
27803;DHT22;15182;48.174;11.562;2024-03-22T00:46:41;14.10;94.40
27803;DHT22;15182;48.174;11.562;2024-03-22T00:49:09;14.10;94.40
27803;DHT22;15182;48.174;11.562;2024-03-22T00:51:37;14.10;94.40
27803;DHT22;15182;48.174;11.562;2024-03-22T00:54:04;14.10;94.40
27803;DHT22;15182;48.174;11.562;2024-03-22T00:56:31;14.10;94.40
27803;DHT22;15182;48.174;11.562;2024-03-22T00:58:59;14.10;94.40
27803;DHT22;15182;48.174;11.562;2024-03-22T01:01:27;14.00;94.30
27803;DHT22;15182;48.174;11.562;2024-03-22T01:03:55;14.10;94.30
27803;DHT22;15182;48.174;11.562;2024-03-22T01:06:22;14.10;94.30
27803;DHT22;15182;48.174;11.562;2024-03-22T01:08:51;14.00;94.60
27803;DHT22;15182;48.174;11.562;2024-03-22T01:11:18;14.00;94.30
27803;DHT22;15182;48.174;11.562;2024-03-22T01:13:45;14.00;94.20
27803;DHT22;15182;48.174;11.562;2024-03-22T01:16:12;14.00;94.20
27803;DHT22;15182;48.174;11.562;2024-03-22T01:18:41;13.90;94.20
27803;DHT22;15182;48.174;11.562;2024-03-22T01:21:08;13.90;94.60
27803;DHT22;15182;48.174;11.562;2024-03-22T01:23:36;13.90;94.20
27803;DHT22;15182;48.174;11.562;2024-03-22T01:26:03;13.90;94.20
27803;DHT22;15182;48.174;11.562;2024-03-22T01:28:31;13.90;94.60
27803;DHT22;15182;48.174;11.562;2024-03-22T01:31:00;13.90;94.30
27803;DHT22;15182;48.174;11.562;2024-03-22T01:33:28;13.80;94.20
27803;DHT22;15182;48.174;11.562;2024-03-22T01:35:56;13.80;94.20
27803;DHT22;15182;48.174;11.562;2024-03-22T01:38:24;13.80;94.20
27803;DHT22;15182;48.174;11.562;2024-03-22T01:40:51;13.80;94.20
27803;DHT22;15182;48.174;11.562;2024-03-22T01:43:18;13.80;94.20
27803;DHT22;15182;48.174;11.562;2024-03-22T01:45:45;13.70;94.20
27803;DHT22;15182;48.174;11.562;2024-03-22T01:48:13;13.70;94.20
27803;DHT22;15182;48.174;11.562;2024-03-22T01:50:40;13.70;94.20
27803;DHT22;15182;48.174;11.562;2024-03-22T01:53:11;13.70;94.20
27803;DHT22;15182;48.174;11.562;2024-03-22T01:55:38;13.60;94.20
27803;DHT22;15182;48.174;11.562;2024-03-22T01:58:06;13.60;94.20
27803;DHT22;15182;48.174;11.562;2024-03-22T02:00:34;13.60;94.30
27803;DHT22;15182;48.174;11.562;2024-03-22T02:03:02;13.60;94.30
27803;DHT22;15182;48.174;11.562;2024-03-22T02:05:29;13.60;94.30
27803;DHT22;15182;48.174;11.562;2024-03-22T02:07:56;13.50;94.20
27803;DHT22;15182;48.174;11.562;2024-03-22T02:10:25;13.50;94.20
27803;DHT22;15182;48.174;11.562;2024-03-22T02:12:52;13.50;94.20
27803;DHT22;15182;48.174;11.562;2024-03-22T02:15:19;13.40;94.20
27803;DHT22;15182;48.174;11.562;2024-03-22T02:17:47;13.40;94.30
27803;DHT22;15182;48.174;11.562;2024-03-22T02:20:14;13.40;94.30
27803;DHT22;15182;48.174;11.562;2024-03-22T02:22:42;13.40;94.30
27803;DHT22;15182;48.174;11.562;2024-03-22T02:25:10;13.40;94.30
27803;DHT22;15182;48.174;11.562;2024-03-22T02:27:38;13.40;94.30
27803;DHT22;15182;48.174;11.562;2024-03-22T02:30:06;13.40;94.30
27803;DHT22;15182;48.174;11.562;2024-03-22T02:32:35;13.40;94.30
27803;DHT22;15182;48.174;11.562;2024-03-22T02:35:03;13.40;94.20
27803;DHT22;15182;48.174;11.562;2024-03-22T02:37:32;13.40;94.30
27803;DHT22;15182;48.174;11.562;2024-03-22T02:39:58;13.40;94.20
27803;DHT22;15182;48.174;11.562;2024-03-22T02:42:28;13.30;94.20
27803;DHT22;15182;48.174;11.562;2024-03-22T02:44:54;13.30;94.30
27803;DHT22;15182;48.174;11.562;2024-03-22T02:47:22;13.30;94.20
27803;DHT22;15182;48.174;11.562;2024-03-22T02:49:49;13.30;94.30
27803;DHT22;15182;48.174;11.562;2024-03-22T02:52:17;13.30;94.20
27803;DHT22;15182;48.174;11.562;2024-03-22T02:54:44;13.30;94.20
27803;DHT22;15182;48.174;11.562;2024-03-22T02:57:12;13.30;94.20
27803;DHT22;15182;48.174;11.562;2024-03-22T02:59:40;13.30;94.20
27803;DHT22;15182;48.174;11.562;2024-03-22T03:02:08;13.30;94.20
27803;DHT22;15182;48.174;11.562;2024-03-22T03:04:35;13.20;94.10
27803;DHT22;15182;48.174;11.562;2024-03-22T03:07:03;13.20;94.20
27803;DHT22;15182;48.174;11.562;2024-03-22T03:09:30;13.20;94.20
27803;DHT22;15182;48.174;11.562;2024-03-22T03:11:58;13.20;94.20
27803;DHT22;15182;48.174;11.562;2024-03-22T03:14:24;13.20;94.20
27803;DHT22;15182;48.174;11.562;2024-03-22T03:16:53;13.20;94.20
27803;DHT22;15182;48.174;11.562;2024-03-22T03:19:20;13.20;94.20
27803;DHT22;15182;48.174;11.562;2024-03-22T03:21:48;13.30;94.20
27803;DHT22;15182;48.174;11.562;2024-03-22T03:24:31;13.20;94.10
27803;DHT22;15182;48.174;11.562;2024-03-22T03:26:59;13.20;94.20
27803;DHT22;15182;48.174;11.562;2024-03-22T03:29:26;13.20;94.10
27803;DHT22;15182;48.174;11.562;2024-03-22T03:31:55;13.20;94.10
27803;DHT22;15182;48.174;11.562;2024-03-22T03:34:22;13.20;94.10
27803;DHT22;15182;48.174;11.562;2024-03-22T03:36:50;13.20;94.10
27803;DHT22;15182;48.174;11.562;2024-03-22T03:39:17;13.20;94.10
27803;DHT22;15182;48.174;11.562;2024-03-22T03:41:45;13.20;94.10
27803;DHT22;15182;48.174;11.562;2024-03-22T03:44:11;13.20;94.10
27803;DHT22;15182;48.174;11.562;2024-03-22T03:46:39;13.20;94.10
27803;DHT22;15182;48.174;11.562;2024-03-22T03:49:07;13.20;94.10
27803;DHT22;15182;48.174;11.562;2024-03-22T03:51:35;13.20;94.00
27803;DHT22;15182;48.174;11.562;2024-03-22T03:54:02;13.20;94.00
27803;DHT22;15182;48.174;11.562;2024-03-22T03:56:30;13.20;94.00
27803;DHT22;15182;48.174;11.562;2024-03-22T03:58:57;13.20;94.40
27803;DHT22;15182;48.174;11.562;2024-03-22T04:01:25;13.20;94.00
27803;DHT22;15182;48.174;11.562;2024-03-22T04:03:51;13.20;94.00
27803;DHT22;15182;48.174;11.562;2024-03-22T04:06:21;13.20;93.90
27803;DHT22;15182;48.174;11.562;2024-03-22T04:08:47;13.20;93.90
27803;DHT22;15182;48.174;11.562;2024-03-22T04:11:15;13.20;94.00
27803;DHT22;15182;48.174;11.562;2024-03-22T04:13:42;13.20;93.90
27803;DHT22;15182;48.174;11.562;2024-03-22T04:16:10;13.20;93.90
27803;DHT22;15182;48.174;11.562;2024-03-22T04:18:36;13.20;93.90
27803;DHT22;15182;48.174;11.562;2024-03-22T04:21:05;13.20;93.90
27803;DHT22;15182;48.174;11.562;2024-03-22T04:23:33;13.10;93.80
27803;DHT22;15182;48.174;11.562;2024-03-22T04:26:01;13.20;93.80
27803;DHT22;15182;48.174;11.562;2024-03-22T04:28:29;13.10;93.90
27803;DHT22;15182;48.174;11.562;2024-03-22T04:30:59;13.10;93.90
27803;DHT22;15182;48.174;11.562;2024-03-22T04:33:27;13.10;93.90
27803;DHT22;15182;48.174;11.562;2024-03-22T04:35:56;13.10;93.90
27803;DHT22;15182;48.174;11.562;2024-03-22T04:38:23;13.10;93.90
27803;DHT22;15182;48.174;11.562;2024-03-22T04:40:54;13.10;93.80
27803;DHT22;15182;48.174;11.562;2024-03-22T04:43:23;13.10;93.90
27803;DHT22;15182;48.174;11.562;2024-03-22T04:45:51;13.10;93.90
27803;DHT22;15182;48.174;11.562;2024-03-22T04:48:20;13.10;93.90
27803;DHT22;15182;48.174;11.562;2024-03-22T04:50:47;13.10;93.90
27803;DHT22;15182;48.174;11.562;2024-03-22T04:53:16;13.10;94.00
27803;DHT22;15182;48.174;11.562;2024-03-22T04:55:43;13.10;94.00
27803;DHT22;15182;48.174;11.562;2024-03-22T04:58:15;13.10;94.00
27803;DHT22;15182;48.174;11.562;2024-03-22T05:00:42;13.10;94.00
27803;DHT22;15182;48.174;11.562;2024-03-22T05:03:11;13.10;94.00
27803;DHT22;15182;48.174;11.562;2024-03-22T05:05:38;13.10;94.00
27803;DHT22;15182;48.174;11.562;2024-03-22T05:08:08;13.10;94.00
27803;DHT22;15182;48.174;11.562;2024-03-22T05:10:35;13.10;94.10
27803;DHT22;15182;48.174;11.562;2024-03-22T05:13:03;13.10;94.10
27803;DHT22;15182;48.174;11.562;2024-03-22T05:15:31;13.10;94.10
27803;DHT22;15182;48.174;11.562;2024-03-22T05:17:59;13.10;94.10
27803;DHT22;15182;48.174;11.562;2024-03-22T05:20:26;13.10;94.20
27803;DHT22;15182;48.174;11.562;2024-03-22T05:22:55;13.10;94.20
27803;DHT22;15182;48.174;11.562;2024-03-22T05:25:21;13.10;94.20
27803;DHT22;15182;48.174;11.562;2024-03-22T05:27:49;13.10;94.20
27803;DHT22;15182;48.174;11.562;2024-03-22T05:30:16;13.10;94.20
27803;DHT22;15182;48.174;11.562;2024-03-22T05:32:45;13.10;94.30
27803;DHT22;15182;48.174;11.562;2024-03-22T05:35:12;13.10;94.30
27803;DHT22;15182;48.174;11.562;2024-03-22T05:37:40;13.10;94.30
27803;DHT22;15182;48.174;11.562;2024-03-22T05:40:08;13.20;94.40
27803;DHT22;15182;48.174;11.562;2024-03-22T05:42:36;13.20;94.40
27803;DHT22;15182;48.174;11.562;2024-03-22T05:45:04;13.20;94.40
27803;DHT22;15182;48.174;11.562;2024-03-22T05:47:32;13.20;94.50
27803;DHT22;15182;48.174;11.562;2024-03-22T05:50:01;13.20;94.50
27803;DHT22;15182;48.174;11.562;2024-03-22T05:52:29;13.30;94.50
27803;DHT22;15182;48.174;11.562;2024-03-22T05:54:56;13.30;94.40
27803;DHT22;15182;48.174;11.562;2024-03-22T05:57:24;13.30;94.80
27803;DHT22;15182;48.174;11.562;2024-03-22T05:59:51;13.30;94.40
27803;DHT22;15182;48.174;11.562;2024-03-22T06:02:19;13.30;94.40
27803;DHT22;15182;48.174;11.562;2024-03-22T06:04:46;13.30;94.40
27803;DHT22;15182;48.174;11.562;2024-03-22T06:07:16;13.30;94.40
27803;DHT22;15182;48.174;11.562;2024-03-22T06:09:43;13.30;94.40
27803;DHT22;15182;48.174;11.562;2024-03-22T06:12:13;13.30;94.40
27803;DHT22;15182;48.174;11.562;2024-03-22T06:14:40;13.30;94.40
27803;DHT22;15182;48.174;11.562;2024-03-22T06:17:09;13.30;94.40
27803;DHT22;15182;48.174;11.562;2024-03-22T06:19:35;13.30;94.50
27803;DHT22;15182;48.174;11.562;2024-03-22T06:22:03;13.30;94.50
27803;DHT22;15182;48.174;11.562;2024-03-22T06:24:32;13.30;94.50
27803;DHT22;15182;48.174;11.562;2024-03-22T06:26:59;13.30;94.50
27803;DHT22;15182;48.174;11.562;2024-03-22T06:29:26;13.30;94.50
27803;DHT22;15182;48.174;11.562;2024-03-22T06:31:54;13.30;94.50
27803;DHT22;15182;48.174;11.562;2024-03-22T06:34:21;13.30;94.50
27803;DHT22;15182;48.174;11.562;2024-03-22T06:36:49;13.30;94.50
27803;DHT22;15182;48.174;11.562;2024-03-22T06:39:17;13.40;94.60
27803;DHT22;15182;48.174;11.562;2024-03-22T06:41:47;13.40;94.60
27803;DHT22;15182;48.174;11.562;2024-03-22T06:44:14;13.40;94.60
27803;DHT22;15182;48.174;11.562;2024-03-22T06:46:42;13.40;94.60
27803;DHT22;15182;48.174;11.562;2024-03-22T06:49:09;13.40;94.70
27803;DHT22;15182;48.174;11.562;2024-03-22T06:51:36;13.40;94.70
27803;DHT22;15182;48.174;11.562;2024-03-22T06:54:03;13.50;94.70
27803;DHT22;15182;48.174;11.562;2024-03-22T06:56:31;13.50;94.70
27803;DHT22;15182;48.174;11.562;2024-03-22T06:59:00;13.50;94.70
27803;DHT22;15182;48.174;11.562;2024-03-22T07:01:27;13.50;94.70
27803;DHT22;15182;48.174;11.562;2024-03-22T07:03:54;13.50;95.10
27803;DHT22;15182;48.174;11.562;2024-03-22T07:06:22;13.50;94.70
27803;DHT22;15182;48.174;11.562;2024-03-22T07:08:49;13.50;94.70
27803;DHT22;15182;48.174;11.562;2024-03-22T07:11:16;13.50;94.80
27803;DHT22;15182;48.174;11.562;2024-03-22T07:13:43;13.60;94.80
27803;DHT22;15182;48.174;11.562;2024-03-22T07:16:12;13.50;94.80
27803;DHT22;15182;48.174;11.562;2024-03-22T07:18:39;13.60;94.90
27803;DHT22;15182;48.174;11.562;2024-03-22T07:21:07;13.60;94.90
27803;DHT22;15182;48.174;11.562;2024-03-22T07:23:34;13.60;94.90
27803;DHT22;15182;48.174;11.562;2024-03-22T07:26:02;13.70;94.90
27803;DHT22;15182;48.174;11.562;2024-03-22T07:28:29;13.70;95.00
27803;DHT22;15182;48.174;11.562;2024-03-22T07:30:56;13.80;95.00
27803;DHT22;15182;48.174;11.562;2024-03-22T07:33:25;13.80;94.90
27803;DHT22;15182;48.174;11.562;2024-03-22T07:35:52;13.90;94.90
27803;DHT22;15182;48.174;11.562;2024-03-22T07:38:20;13.90;95.00
27803;DHT22;15182;48.174;11.562;2024-03-22T07:40:48;13.90;95.00
27803;DHT22;15182;48.174;11.562;2024-03-22T07:43:15;14.00;94.90
27803;DHT22;15182;48.174;11.562;2024-03-22T07:45:43;14.00;95.00
27803;DHT22;15182;48.174;11.562;2024-03-22T07:48:10;14.00;94.90
27803;DHT22;15182;48.174;11.562;2024-03-22T07:50:39;14.00;95.00
27803;DHT22;15182;48.174;11.562;2024-03-22T07:53:06;14.00;95.00
27803;DHT22;15182;48.174;11.562;2024-03-22T07:55:34;14.10;95.00
27803;DHT22;15182;48.174;11.562;2024-03-22T07:58:01;14.20;95.10
27803;DHT22;15182;48.174;11.562;2024-03-22T08:00:29;14.20;95.40
27803;DHT22;15182;48.174;11.562;2024-03-22T08:02:55;14.30;95.10
27803;DHT22;15182;48.174;11.562;2024-03-22T08:05:23;14.40;95.10
27803;DHT22;15182;48.174;11.562;2024-03-22T08:07:52;14.40;95.10
27803;DHT22;15182;48.174;11.562;2024-03-22T08:10:19;14.50;95.10
27803;DHT22;15182;48.174;11.562;2024-03-22T08:12:46;14.70;95.10
27803;DHT22;15182;48.174;11.562;2024-03-22T08:15:14;14.70;95.10
27803;DHT22;15182;48.174;11.562;2024-03-22T08:17:41;14.90;95.10
27803;DHT22;15182;48.174;11.562;2024-03-22T08:20:09;15.00;95.20
27803;DHT22;15182;48.174;11.562;2024-03-22T08:22:36;15.10;95.20
27803;DHT22;15182;48.174;11.562;2024-03-22T08:25:06;15.30;95.10
27803;DHT22;15182;48.174;11.562;2024-03-22T08:27:34;15.50;95.00
27803;DHT22;15182;48.174;11.562;2024-03-22T08:30:02;15.60;95.00
27803;DHT22;15182;48.174;11.562;2024-03-22T08:32:30;15.80;94.90
27803;DHT22;15182;48.174;11.562;2024-03-22T08:34:58;15.90;94.70
27803;DHT22;15182;48.174;11.562;2024-03-22T08:37:24;16.10;94.60
27803;DHT22;15182;48.174;11.562;2024-03-22T08:39:52;16.30;94.50
27803;DHT22;15182;48.174;11.562;2024-03-22T08:42:21;16.50;94.10
27803;DHT22;15182;48.174;11.562;2024-03-22T08:44:49;16.60;94.00
27803;DHT22;15182;48.174;11.562;2024-03-22T08:47:15;16.70;93.80
27803;DHT22;15182;48.174;11.562;2024-03-22T08:49:43;16.90;93.70
27803;DHT22;15182;48.174;11.562;2024-03-22T08:52:12;17.00;93.40
27803;DHT22;15182;48.174;11.562;2024-03-22T08:54:40;17.10;93.20
27803;DHT22;15182;48.174;11.562;2024-03-22T08:57:07;17.20;93.00
27803;DHT22;15182;48.174;11.562;2024-03-22T08:59:36;17.30;93.00
27803;DHT22;15182;48.174;11.562;2024-03-22T09:02:04;17.40;93.20
27803;DHT22;15182;48.174;11.562;2024-03-22T09:04:32;17.50;92.90
27803;DHT22;15182;48.174;11.562;2024-03-22T09:06:59;17.70;92.80
27803;DHT22;15182;48.174;11.562;2024-03-22T09:09:27;17.80;92.60
27803;DHT22;15182;48.174;11.562;2024-03-22T09:11:53;17.90;92.40
27803;DHT22;15182;48.174;11.562;2024-03-22T09:14:21;18.00;92.40
27803;DHT22;15182;48.174;11.562;2024-03-22T09:16:49;18.10;92.10
27803;DHT22;15182;48.174;11.562;2024-03-22T09:19:17;18.30;91.80
27803;DHT22;15182;48.174;11.562;2024-03-22T09:21:44;18.30;91.70
27803;DHT22;15182;48.174;11.562;2024-03-22T09:24:12;18.40;91.60
27803;DHT22;15182;48.174;11.562;2024-03-22T09:26:39;18.60;91.70
27803;DHT22;15182;48.174;11.562;2024-03-22T09:29:07;18.70;91.10
27803;DHT22;15182;48.174;11.562;2024-03-22T09:31:33;18.80;91.00
27803;DHT22;15182;48.174;11.562;2024-03-22T09:34:03;19.00;90.90
27803;DHT22;15182;48.174;11.562;2024-03-22T09:36:30;19.20;90.50
27803;DHT22;15182;48.174;11.562;2024-03-22T09:39:01;19.30;90.70
27803;DHT22;15182;48.174;11.562;2024-03-22T09:41:31;19.40;90.20
27803;DHT22;15182;48.174;11.562;2024-03-22T09:44:00;19.50;89.70
27803;DHT22;15182;48.174;11.562;2024-03-22T09:46:29;19.60;90.30
27803;DHT22;15182;48.174;11.562;2024-03-22T09:48:58;19.70;89.50
27803;DHT22;15182;48.174;11.562;2024-03-22T09:51:27;19.80;89.10
27803;DHT22;15182;48.174;11.562;2024-03-22T09:53:57;19.80;88.60
27803;DHT22;15182;48.174;11.562;2024-03-22T09:56:24;19.90;88.80
27803;DHT22;15182;48.174;11.562;2024-03-22T09:58:53;20.00;88.90
27803;DHT22;15182;48.174;11.562;2024-03-22T10:01:20;20.10;89.10
27803;DHT22;15182;48.174;11.562;2024-03-22T10:03:49;20.30;89.00
27803;DHT22;15182;48.174;11.562;2024-03-22T10:06:17;20.40;88.20
27803;DHT22;15182;48.174;11.562;2024-03-22T10:08:46;20.60;87.70
27803;DHT22;15182;48.174;11.562;2024-03-22T10:11:13;20.70;86.00
27803;DHT22;15182;48.174;11.562;2024-03-22T10:13:41;20.90;86.00
27803;DHT22;15182;48.174;11.562;2024-03-22T10:16:08;21.00;85.40
27803;DHT22;15182;48.174;11.562;2024-03-22T10:18:36;21.10;84.60
27803;DHT22;15182;48.174;11.562;2024-03-22T10:21:04;21.20;84.50
27803;DHT22;15182;48.174;11.562;2024-03-22T10:23:32;21.30;84.30
27803;DHT22;15182;48.174;11.562;2024-03-22T10:26:00;21.40;83.40
27803;DHT22;15182;48.174;11.562;2024-03-22T10:28:28;21.40;82.80
27803;DHT22;15182;48.174;11.562;2024-03-22T10:30:55;21.40;83.10
27803;DHT22;15182;48.174;11.562;2024-03-22T10:33:23;21.40;82.70
27803;DHT22;15182;48.174;11.562;2024-03-22T10:35:51;21.40;82.10
27803;DHT22;15182;48.174;11.562;2024-03-22T10:38:20;21.40;81.70
27803;DHT22;15182;48.174;11.562;2024-03-22T10:40:49;21.40;81.90
27803;DHT22;15182;48.174;11.562;2024-03-22T10:43:19;21.40;81.70
27803;DHT22;15182;48.174;11.562;2024-03-22T10:45:48;21.50;81.80
27803;DHT22;15182;48.174;11.562;2024-03-22T10:48:17;21.60;81.70
27803;DHT22;15182;48.174;11.562;2024-03-22T10:50:46;21.70;81.80
27803;DHT22;15182;48.174;11.562;2024-03-22T10:53:18;21.70;81.50
27803;DHT22;15182;48.174;11.562;2024-03-22T10:55:51;21.90;80.80
27803;DHT22;15182;48.174;11.562;2024-03-22T10:58:22;22.00;80.90
27803;DHT22;15182;48.174;11.562;2024-03-22T11:00:52;22.10;80.50
27803;DHT22;15182;48.174;11.562;2024-03-22T11:03:20;22.30;81.20
27803;DHT22;15182;48.174;11.562;2024-03-22T11:05:50;22.50;80.30
27803;DHT22;15182;48.174;11.562;2024-03-22T11:08:24;22.60;79.60
27803;DHT22;15182;48.174;11.562;2024-03-22T11:10:52;22.80;78.30
27803;DHT22;15182;48.174;11.562;2024-03-22T11:13:23;22.90;79.00
27803;DHT22;15182;48.174;11.562;2024-03-22T11:15:51;23.00;77.90
27803;DHT22;15182;48.174;11.562;2024-03-22T11:18:18;23.00;78.20
27803;DHT22;15182;48.174;11.562;2024-03-22T11:20:46;23.00;78.20
27803;DHT22;15182;48.174;11.562;2024-03-22T11:23:13;23.10;78.20
27803;DHT22;15182;48.174;11.562;2024-03-22T11:25:41;23.30;78.00
27803;DHT22;15182;48.174;11.562;2024-03-22T11:28:08;23.30;77.40
27803;DHT22;15182;48.174;11.562;2024-03-22T11:30:37;23.40;77.00
27803;DHT22;15182;48.174;11.562;2024-03-22T11:33:04;23.40;76.50
27803;DHT22;15182;48.174;11.562;2024-03-22T11:35:33;23.40;76.70
27803;DHT22;15182;48.174;11.562;2024-03-22T11:38:00;23.50;76.00
27803;DHT22;15182;48.174;11.562;2024-03-22T11:40:31;23.50;76.00
27803;DHT22;15182;48.174;11.562;2024-03-22T11:43:00;23.50;75.90
27803;DHT22;15182;48.174;11.562;2024-03-22T11:45:29;23.50;76.00
27803;DHT22;15182;48.174;11.562;2024-03-22T11:48:01;23.60;76.10
27803;DHT22;15182;48.174;11.562;2024-03-22T11:50:29;23.70;75.40
27803;DHT22;15182;48.174;11.562;2024-03-22T11:52:56;23.70;75.70
27803;DHT22;15182;48.174;11.562;2024-03-22T11:55:26;23.70;75.10
27803;DHT22;15182;48.174;11.562;2024-03-22T11:57:54;23.60;75.00
27803;DHT22;15182;48.174;11.562;2024-03-22T12:00:25;23.50;75.40
27803;DHT22;15182;48.174;11.562;2024-03-22T12:02:53;23.50;75.40
27803;DHT22;15182;48.174;11.562;2024-03-22T12:05:23;23.50;75.00
27803;DHT22;15182;48.174;11.562;2024-03-22T12:07:51;23.40;74.30
27803;DHT22;15182;48.174;11.562;2024-03-22T12:10:19;23.40;75.40
27803;DHT22;15182;48.174;11.562;2024-03-22T12:12:46;23.40;75.30
27803;DHT22;15182;48.174;11.562;2024-03-22T12:15:14;23.30;74.90
27803;DHT22;15182;48.174;11.562;2024-03-22T12:17:41;23.30;74.50
27803;DHT22;15182;48.174;11.562;2024-03-22T12:20:10;23.20;74.30
27803;DHT22;15182;48.174;11.562;2024-03-22T12:22:38;23.10;74.40
27803;DHT22;15182;48.174;11.562;2024-03-22T12:25:06;23.00;74.10
27803;DHT22;15182;48.174;11.562;2024-03-22T12:27:36;22.90;74.60
27803;DHT22;15182;48.174;11.562;2024-03-22T12:30:04;22.80;74.70
27803;DHT22;15182;48.174;11.562;2024-03-22T12:32:32;22.70;74.80
27803;DHT22;15182;48.174;11.562;2024-03-22T12:35:00;22.60;75.00
27803;DHT22;15182;48.174;11.562;2024-03-22T12:37:28;22.60;75.30
27803;DHT22;15182;48.174;11.562;2024-03-22T12:39:57;22.50;75.40
27803;DHT22;15182;48.174;11.562;2024-03-22T12:42:24;22.40;75.20
27803;DHT22;15182;48.174;11.562;2024-03-22T12:44:52;22.30;75.60
27803;DHT22;15182;48.174;11.562;2024-03-22T12:47:19;22.20;75.60
27803;DHT22;15182;48.174;11.562;2024-03-22T12:49:47;22.20;75.90
27803;DHT22;15182;48.174;11.562;2024-03-22T12:52:13;22.20;76.20
27803;DHT22;15182;48.174;11.562;2024-03-22T12:54:41;22.20;76.20
27803;DHT22;15182;48.174;11.562;2024-03-22T12:57:09;22.10;76.00
27803;DHT22;15182;48.174;11.562;2024-03-22T12:59:37;22.20;76.20
27803;DHT22;15182;48.174;11.562;2024-03-22T13:02:04;22.20;76.50
27803;DHT22;15182;48.174;11.562;2024-03-22T13:04:32;22.20;76.50
27803;DHT22;15182;48.174;11.562;2024-03-22T13:06:59;22.30;76.10
27803;DHT22;15182;48.174;11.562;2024-03-22T13:09:27;22.30;76.30
27803;DHT22;15182;48.174;11.562;2024-03-22T13:11:54;22.30;76.20
27803;DHT22;15182;48.174;11.562;2024-03-22T13:14:23;22.40;76.20
27803;DHT22;15182;48.174;11.562;2024-03-22T13:16:50;22.40;75.50
27803;DHT22;15182;48.174;11.562;2024-03-22T13:19:18;22.50;75.80
27803;DHT22;15182;48.174;11.562;2024-03-22T13:21:45;22.50;75.80
27803;DHT22;15182;48.174;11.562;2024-03-22T13:24:15;22.50;75.70
27803;DHT22;15182;48.174;11.562;2024-03-22T13:26:41;22.50;75.50
27803;DHT22;15182;48.174;11.562;2024-03-22T13:29:10;22.50;75.20
27803;DHT22;15182;48.174;11.562;2024-03-22T13:31:38;22.60;75.40
27803;DHT22;15182;48.174;11.562;2024-03-22T13:34:06;22.60;75.60
27803;DHT22;15182;48.174;11.562;2024-03-22T13:36:32;22.60;75.00
27803;DHT22;15182;48.174;11.562;2024-03-22T13:39:03;22.60;74.90
27803;DHT22;15182;48.174;11.562;2024-03-22T13:41:30;22.60;74.60
27803;DHT22;15182;48.174;11.562;2024-03-22T13:43:57;22.60;74.60
27803;DHT22;15182;48.174;11.562;2024-03-22T13:46:24;22.60;74.70
27803;DHT22;15182;48.174;11.562;2024-03-22T13:48:53;22.60;74.70
27803;DHT22;15182;48.174;11.562;2024-03-22T13:51:21;22.60;74.00
27803;DHT22;15182;48.174;11.562;2024-03-22T13:53:50;22.60;74.00
27803;DHT22;15182;48.174;11.562;2024-03-22T13:56:17;22.60;74.10
27803;DHT22;15182;48.174;11.562;2024-03-22T13:58:45;22.60;74.10
27803;DHT22;15182;48.174;11.562;2024-03-22T14:01:12;22.60;74.50
27803;DHT22;15182;48.174;11.562;2024-03-22T14:03:39;22.60;74.50
27803;DHT22;15182;48.174;11.562;2024-03-22T14:06:07;22.60;74.40
27803;DHT22;15182;48.174;11.562;2024-03-22T14:08:35;22.60;74.50
27803;DHT22;15182;48.174;11.562;2024-03-22T14:11:02;22.60;74.50
27803;DHT22;15182;48.174;11.562;2024-03-22T14:13:31;22.60;74.70
27803;DHT22;15182;48.174;11.562;2024-03-22T14:15:58;22.60;74.40
27803;DHT22;15182;48.174;11.562;2024-03-22T14:18:25;22.60;74.60
27803;DHT22;15182;48.174;11.562;2024-03-22T14:20:52;22.60;74.30
27803;DHT22;15182;48.174;11.562;2024-03-22T14:23:22;22.60;74.10
27803;DHT22;15182;48.174;11.562;2024-03-22T14:25:49;22.60;73.40
27803;DHT22;15182;48.174;11.562;2024-03-22T14:28:16;22.60;73.30
27803;DHT22;15182;48.174;11.562;2024-03-22T14:30:43;22.60;73.30
27803;DHT22;15182;48.174;11.562;2024-03-22T14:33:11;22.60;73.30
27803;DHT22;15182;48.174;11.562;2024-03-22T14:35:38;22.60;73.10
27803;DHT22;15182;48.174;11.562;2024-03-22T14:38:09;22.50;72.80
27803;DHT22;15182;48.174;11.562;2024-03-22T14:40:37;22.50;72.50
27803;DHT22;15182;48.174;11.562;2024-03-22T14:43:05;22.50;73.20
27803;DHT22;15182;48.174;11.562;2024-03-22T14:45:32;22.40;72.40
27803;DHT22;15182;48.174;11.562;2024-03-22T14:48:00;22.40;72.30
27803;DHT22;15182;48.174;11.562;2024-03-22T14:50:26;22.30;72.20
27803;DHT22;15182;48.174;11.562;2024-03-22T14:52:54;22.30;72.40
27803;DHT22;15182;48.174;11.562;2024-03-22T14:55:21;22.20;72.10
27803;DHT22;15182;48.174;11.562;2024-03-22T14:57:50;22.20;72.20
27803;DHT22;15182;48.174;11.562;2024-03-22T15:00:17;22.10;72.40
27803;DHT22;15182;48.174;11.562;2024-03-22T15:02:45;22.10;72.40
27803;DHT22;15182;48.174;11.562;2024-03-22T15:05:13;22.00;72.60
27803;DHT22;15182;48.174;11.562;2024-03-22T15:07:41;21.90;72.60
27803;DHT22;15182;48.174;11.562;2024-03-22T15:10:09;21.90;72.70
27803;DHT22;15182;48.174;11.562;2024-03-22T15:12:37;21.90;72.70
27803;DHT22;15182;48.174;11.562;2024-03-22T15:15:07;21.90;73.00
27803;DHT22;15182;48.174;11.562;2024-03-22T15:17:35;21.80;72.50
27803;DHT22;15182;48.174;11.562;2024-03-22T15:20:04;21.80;72.50